createdAt,value
2019-05-09T00:02:39.148Z,5.00
2019-05-09T00:05:28.426Z,4.33
2019-05-09T00:08:18.433Z,5.70
2019-05-09T00:11:07.855Z,5.23
2019-05-09T00:13:57.846Z,5.20
2019-05-09T00:16:47.648Z,5.50
2019-05-09T00:19:37.801Z,6.00
2019-05-09T00:22:27.361Z,5.83
2019-05-09T00:25:17.190Z,5.60
2019-05-09T00:28:07.307Z,5.30
2019-05-09T00:31:07.944Z,6.40
2019-05-09T00:34:01.143Z,5.53
2019-05-09T00:36:50.956Z,6.10
2019-05-09T00:39:40.637Z,6.13
2019-05-09T00:42:30.566Z,5.80
2019-05-09T00:45:48.843Z,5.00
2019-05-09T00:49:14.029Z,6.27
2019-05-09T00:52:04.031Z,5.57
2019-05-09T00:54:53.857Z,5.27
2019-05-09T00:57:44.053Z,5.20
2019-05-09T01:00:33.763Z,5.00
2019-05-09T01:03:23.606Z,4.50
2019-05-09T01:06:13.701Z,5.23
2019-05-09T01:09:05.199Z,4.87
2019-05-09T01:11:55.264Z,4.43
2019-05-09T01:14:46.136Z,4.37
2019-05-09T01:17:36.323Z,4.33
2019-05-09T01:20:26.560Z,3.60
2019-05-09T01:23:16.736Z,3.70
2019-05-09T01:26:06.510Z,3.20
2019-05-09T01:28:56.670Z,3.73
2019-05-09T01:31:46.544Z,3.30
2019-05-09T01:34:37.440Z,3.57
2019-05-09T01:37:27.202Z,4.07
2019-05-09T01:40:17.426Z,3.30
2019-05-09T01:43:07.268Z,3.47
2019-05-09T01:45:57.057Z,3.90
2019-05-09T01:48:47.066Z,4.20
2019-05-09T01:51:37.107Z,3.57
2019-05-09T01:54:28.194Z,3.10
2019-05-09T01:57:18.842Z,4.10
2019-05-09T02:00:10.458Z,4.43
2019-05-09T02:03:00.128Z,3.57
2019-05-09T02:05:50.365Z,3.60
2019-05-09T02:08:40.331Z,3.63
2019-05-09T02:11:41.681Z,3.23
2019-05-09T02:14:34.301Z,3.40
2019-05-09T02:18:01.090Z,2.83
2019-05-09T02:20:40.255Z,2.70
2019-05-09T02:23:30.183Z,2.97
2019-05-09T02:26:19.713Z,2.90
2019-05-09T02:29:09.541Z,2.33
2019-05-09T02:31:59.474Z,2.90
2019-05-09T02:34:49.400Z,3.10
2019-05-09T02:37:39.232Z,3.10
2019-05-09T02:40:30.176Z,3.00
2019-05-09T02:43:20.220Z,2.73
2019-05-09T02:46:18.898Z,2.40
2019-05-09T02:49:09.125Z,2.30
2019-05-09T02:51:59.566Z,2.27
2019-05-09T02:54:50.283Z,2.00
2019-05-09T02:57:40.511Z,2.40
2019-05-09T03:00:48.359Z,2.37
2019-05-09T03:03:39.482Z,2.77
2019-05-09T03:06:29.219Z,1.90
2019-05-09T03:09:19.436Z,2.00
2019-05-09T03:12:22.797Z,1.70
2019-05-09T03:15:01.052Z,2.20
2019-05-09T03:17:51.313Z,1.83
2019-05-09T03:20:51.327Z,1.80
2019-05-09T03:23:41.307Z,2.80
2019-05-09T03:26:34.643Z,2.07
2019-05-09T03:29:30.215Z,1.43
2019-05-09T03:32:20.221Z,1.50
2019-05-09T03:35:10.757Z,1.23
2019-05-09T03:38:08.163Z,1.50
2019-05-09T03:40:58.406Z,1.10
2019-05-09T03:43:48.534Z,1.37
2019-05-09T03:46:51.454Z,1.20
2019-05-09T03:49:41.603Z,1.20
2019-05-09T03:52:31.783Z,1.20
2019-05-09T03:55:28.146Z,1.10
2019-05-09T03:58:20.044Z,1.37
2019-05-09T04:01:10.960Z,2.53
2019-05-09T04:04:01.697Z,1.60
2019-05-09T04:06:51.493Z,1.27
2019-05-09T04:09:41.490Z,1.50
2019-05-09T04:12:31.807Z,1.27
2019-05-09T04:15:22.063Z,1.20
2019-05-09T04:18:12.053Z,0.90
2019-05-09T04:21:02.345Z,1.33
2019-05-09T04:23:52.240Z,1.10
2019-05-09T04:26:50.737Z,1.10
2019-05-09T04:29:41.021Z,1.90
2019-05-09T04:32:30.931Z,3.47
2019-05-09T04:35:20.683Z,1.40
2019-05-09T04:38:10.451Z,1.40
2019-05-09T04:41:00.584Z,1.30
2019-05-09T04:43:50.410Z,1.47
2019-05-09T04:46:40.261Z,1.30
2019-05-09T04:49:39.673Z,1.23
2019-05-09T04:52:22.293Z,1.23
2019-05-09T04:55:14.225Z,1.17
2019-05-09T04:58:04.415Z,1.10
2019-05-09T05:01:11.051Z,1.10
2019-05-09T05:04:00.788Z,1.17
2019-05-09T05:06:50.867Z,1.10
2019-05-09T05:09:40.689Z,1.13
2019-05-09T05:12:30.580Z,1.20
2019-05-09T05:15:20.644Z,1.17
2019-05-09T05:18:11.004Z,1.33
2019-05-09T05:21:00.657Z,1.43
2019-05-09T05:24:15.285Z,1.43
2019-05-09T05:27:05.028Z,1.57
2019-05-09T05:29:55.547Z,1.63
2019-05-09T05:33:04.254Z,1.07
2019-05-09T05:35:57.525Z,1.30
2019-05-09T05:38:47.956Z,1.50
2019-05-09T05:41:37.957Z,1.40
2019-05-09T05:44:28.495Z,1.77
2019-05-09T05:47:29.326Z,2.00
2019-05-09T05:50:18.980Z,1.27
2019-05-09T05:53:09.209Z,1.43
2019-05-09T05:55:59.342Z,1.33
2019-05-09T05:58:49.275Z,1.50
2019-05-09T06:01:39.472Z,1.37
2019-05-09T06:04:29.448Z,1.30
2019-05-09T06:07:19.866Z,1.40
2019-05-09T06:10:10.614Z,1.40
2019-05-09T06:13:00.371Z,1.20
2019-05-09T06:15:50.249Z,1.20
2019-05-09T06:18:39.691Z,1.23
2019-05-09T06:21:31.856Z,1.40
2019-05-09T06:24:21.761Z,1.43
2019-05-09T06:27:11.676Z,1.20
2019-05-09T06:30:04.874Z,2.03
2019-05-09T06:32:54.955Z,1.23
2019-05-09T06:35:45.325Z,1.30
2019-05-09T06:38:37.595Z,1.53
2019-05-09T06:41:28.632Z,1.30
2019-05-09T06:44:28.110Z,1.43
2019-05-09T06:47:22.944Z,1.10
2019-05-09T06:50:15.635Z,1.10
2019-05-09T06:53:07.796Z,1.20
2019-05-09T06:55:58.010Z,1.20
2019-05-09T06:58:48.196Z,1.13
2019-05-09T07:01:48.175Z,1.17
2019-05-09T07:04:47.580Z,1.33
2019-05-09T07:08:02.917Z,1.77
2019-05-09T07:10:53.264Z,1.40
2019-05-09T07:13:43.852Z,0.90
2019-05-09T07:16:33.818Z,1.27
2019-05-09T07:19:24.303Z,1.30
2019-05-09T07:22:34.306Z,0.90
2019-05-09T07:25:47.718Z,1.20
2019-05-09T07:28:37.758Z,1.30
2019-05-09T07:31:35.011Z,1.50
2019-05-09T07:34:33.534Z,1.17
2019-05-09T07:37:23.557Z,1.20
2019-05-09T07:40:13.411Z,1.30
2019-05-09T07:43:03.548Z,1.30
2019-05-09T07:46:21.911Z,1.17
2019-05-09T07:49:13.452Z,0.97
2019-05-09T07:52:06.852Z,1.20
2019-05-09T07:54:54.545Z,1.30
2019-05-09T07:57:50.008Z,1.60
2019-05-09T08:00:38.668Z,1.30
2019-05-09T08:03:28.970Z,1.10
2019-05-09T08:06:18.600Z,1.00
2019-05-09T08:09:08.965Z,1.20
2019-05-09T08:11:58.982Z,1.10
2019-05-09T08:15:06.587Z,0.80
2019-05-09T08:17:40.718Z,0.90
2019-05-09T08:20:30.815Z,1.33
2019-05-09T08:23:20.683Z,1.00
2019-05-09T08:26:10.688Z,1.43
2019-05-09T08:29:01.092Z,1.00
2019-05-09T08:31:50.610Z,1.10
2019-05-09T08:34:40.396Z,1.00
2019-05-09T08:37:30.412Z,1.23
2019-05-09T08:40:21.517Z,0.93
2019-05-09T08:43:11.454Z,1.00
2019-05-09T08:46:01.628Z,1.30
2019-05-09T08:48:51.307Z,1.00
2019-05-09T08:52:06.431Z,0.97
2019-05-09T08:55:08.487Z,0.97
2019-05-09T08:57:59.304Z,1.03
2019-05-09T09:00:49.212Z,1.47
2019-05-09T09:03:39.999Z,1.10
2019-05-09T09:06:30.356Z,1.10
2019-05-09T09:09:20.714Z,0.97
2019-05-09T09:12:25.900Z,1.20
2019-05-09T09:15:02.019Z,1.10
2019-05-09T09:17:52.087Z,0.90
2019-05-09T09:20:43.218Z,1.00
2019-05-09T09:23:44.066Z,1.00
2019-05-09T09:26:27.549Z,1.23
2019-05-09T09:29:17.834Z,0.90
2019-05-09T09:32:08.600Z,0.90
2019-05-09T09:34:58.949Z,1.17
2019-05-09T09:37:52.147Z,1.20
2019-05-09T09:40:40.494Z,0.90
2019-05-09T09:43:30.352Z,0.90
2019-05-09T09:46:20.387Z,0.90
2019-05-09T09:49:10.500Z,1.50
2019-05-09T09:52:00.588Z,1.87
2019-05-09T09:54:50.162Z,1.23
2019-05-09T09:57:40.065Z,1.10
2019-05-09T10:00:58.771Z,0.90
2019-05-09T10:03:52.239Z,1.40
2019-05-09T10:06:42.460Z,1.00
2019-05-09T10:09:32.504Z,1.20
2019-05-09T10:12:22.746Z,0.93
2019-05-09T10:15:28.216Z,1.10
2019-05-09T10:18:27.544Z,1.00
2019-05-09T10:21:23.024Z,0.93
2019-05-09T10:24:12.843Z,1.00
2019-05-09T10:27:10.376Z,1.10
2019-05-09T10:30:00.101Z,1.10
2019-05-09T10:32:49.894Z,1.17
2019-05-09T10:35:39.843Z,1.00
2019-05-09T10:38:30.728Z,1.10
2019-05-09T10:41:20.981Z,0.80
2019-05-09T10:44:17.984Z,0.97
2019-05-09T10:47:23.696Z,0.90
2019-05-09T10:50:14.059Z,1.43
2019-05-09T10:53:04.583Z,0.93
2019-05-09T10:55:54.692Z,1.33
2019-05-09T10:58:45.063Z,0.97
2019-05-09T11:01:34.974Z,1.10
2019-05-09T11:04:25.083Z,0.90
2019-05-09T11:07:14.864Z,1.10
2019-05-09T11:10:20.787Z,0.80
2019-05-09T11:12:58.442Z,1.50
2019-05-09T11:15:48.348Z,1.07
2019-05-09T11:18:38.272Z,0.87
2019-05-09T11:21:28.868Z,1.57
2019-05-09T11:24:19.376Z,1.00
2019-05-09T11:27:09.513Z,0.73
2019-05-09T11:29:59.834Z,0.80
2019-05-09T11:32:50.080Z,0.90
2019-05-09T11:35:39.741Z,1.00
2019-05-09T11:38:36.530Z,1.20
2019-05-09T11:41:20.967Z,0.80
2019-05-09T11:44:11.193Z,1.20
2019-05-09T11:47:00.962Z,1.67
2019-05-09T11:49:50.749Z,1.00
2019-05-09T11:52:40.851Z,0.93
2019-05-09T11:55:36.037Z,1.33
2019-05-09T11:58:22.908Z,0.80
2019-05-09T12:01:13.300Z,0.70
2019-05-09T12:04:03.142Z,0.70
2019-05-09T12:06:53.206Z,0.80
2019-05-09T12:09:42.993Z,1.20
2019-05-09T12:12:32.852Z,0.70
2019-05-09T12:15:23.016Z,0.70
2019-05-09T12:18:12.868Z,0.80
2019-05-09T12:21:02.774Z,1.00
2019-05-09T12:23:53.000Z,0.63
2019-05-09T12:26:42.871Z,1.00
2019-05-09T12:29:32.522Z,0.80
2019-05-09T12:32:22.123Z,0.90
2019-05-09T12:35:12.120Z,1.13
2019-05-09T12:38:02.356Z,0.80
2019-05-09T12:40:52.485Z,0.93
2019-05-09T12:43:42.386Z,0.90
2019-05-09T12:46:32.660Z,1.00
2019-05-09T12:49:22.997Z,1.00
2019-05-09T12:52:12.763Z,0.63
2019-05-09T12:55:02.434Z,0.87
2019-05-09T12:57:52.516Z,0.80
2019-05-09T13:00:42.642Z,0.80
2019-05-09T13:03:32.521Z,0.80
2019-05-09T13:06:22.645Z,0.70
2019-05-09T13:09:12.350Z,1.13
2019-05-09T13:12:01.782Z,0.77
2019-05-09T13:14:51.484Z,0.80
2019-05-09T13:17:43.838Z,0.80
2019-05-09T13:20:33.698Z,0.80
2019-05-09T13:23:23.634Z,0.93
2019-05-09T13:26:14.781Z,0.70
2019-05-09T13:29:04.916Z,1.20
2019-05-09T13:31:54.719Z,0.93
2019-05-09T13:34:48.563Z,1.00
2019-05-09T13:37:38.484Z,1.03
2019-05-09T13:40:29.166Z,0.80
2019-05-09T13:43:19.368Z,0.80
2019-05-09T13:46:09.741Z,1.00
2019-05-09T13:49:10.940Z,1.07
2019-05-09T13:52:00.479Z,1.70
2019-05-09T13:54:44.753Z,3.90
2019-05-09T13:57:34.204Z,0.90
2019-05-09T14:00:24.564Z,0.90
2019-05-09T14:03:14.691Z,0.60
2019-05-09T14:06:04.685Z,3.13
2019-05-09T14:08:54.509Z,1.80
2019-05-09T14:11:44.848Z,0.90
2019-05-09T14:14:34.481Z,0.73
2019-05-09T14:17:42.095Z,0.60
2019-05-09T14:20:18.013Z,4.77
2019-05-09T14:23:11.464Z,1.13
2019-05-09T14:26:00.171Z,0.90
2019-05-09T14:28:50.250Z,0.90
2019-05-09T14:31:39.694Z,2.87
2019-05-09T14:34:30.275Z,0.70
2019-05-09T14:37:20.160Z,0.70
2019-05-09T14:40:10.630Z,0.70
2019-05-09T14:43:00.528Z,0.63
2019-05-09T14:45:50.742Z,1.87
2019-05-09T14:48:41.607Z,1.90
2019-05-09T14:51:31.568Z,0.73
2019-05-09T14:54:21.692Z,0.60
2019-05-09T14:57:11.549Z,0.60
2019-05-09T15:00:01.605Z,0.60
2019-05-09T15:02:51.688Z,0.60
2019-05-09T15:05:41.808Z,1.43
2019-05-09T15:08:31.685Z,1.57
2019-05-09T15:11:21.584Z,0.80
2019-05-09T15:14:12.591Z,0.60
2019-05-09T15:17:02.416Z,0.80
2019-05-09T15:20:00.095Z,1.20
2019-05-09T15:22:43.926Z,0.77
2019-05-09T15:25:33.931Z,0.80
2019-05-09T15:28:23.809Z,0.60
2019-05-09T15:31:13.190Z,0.60
2019-05-09T15:34:04.569Z,0.70
2019-05-09T15:36:54.672Z,0.67
2019-05-09T15:39:44.507Z,0.73
2019-05-09T15:42:34.912Z,0.90
2019-05-09T15:45:28.566Z,0.60
2019-05-09T15:48:18.353Z,0.77
2019-05-09T15:51:08.098Z,0.80
2019-05-09T15:53:58.171Z,0.70
2019-05-09T15:56:48.506Z,0.90
2019-05-09T15:59:39.110Z,3.10
2019-05-09T16:02:28.823Z,0.90
2019-05-09T16:05:19.703Z,0.67
2019-05-09T16:08:11.533Z,0.77
2019-05-09T16:11:00.937Z,1.10
2019-05-09T16:13:51.018Z,0.60
2019-05-09T16:16:40.941Z,0.80
2019-05-09T16:19:30.405Z,0.70
2019-05-09T16:22:20.747Z,0.70
2019-05-09T16:25:11.546Z,0.80
2019-05-09T16:28:01.837Z,0.70
2019-05-09T16:30:52.164Z,0.83
2019-05-09T16:33:41.772Z,0.90
2019-05-09T16:36:31.757Z,1.00
2019-05-09T16:39:22.140Z,3.33
2019-05-09T16:42:12.208Z,1.67
2019-05-09T16:45:03.604Z,0.70
2019-05-09T16:48:00.029Z,0.70
2019-05-09T16:51:00.599Z,0.70
2019-05-09T16:53:41.612Z,0.73
2019-05-09T16:56:31.469Z,0.90
2019-05-09T16:59:21.312Z,0.60
2019-05-09T17:02:23.823Z,2.30
2019-05-09T17:05:04.839Z,0.70
2019-05-09T17:07:54.946Z,0.70
2019-05-09T17:10:44.996Z,0.77
2019-05-09T17:13:35.750Z,0.80
2019-05-09T17:16:28.260Z,0.70
2019-05-09T17:19:19.275Z,0.70
2019-05-09T17:22:16.056Z,1.83
2019-05-09T17:25:07.855Z,1.00
2019-05-09T17:27:59.417Z,0.67
2019-05-09T17:30:49.437Z,0.70
2019-05-09T17:33:39.074Z,0.70
2019-05-09T17:36:28.844Z,0.77
2019-05-09T17:39:18.927Z,0.73
2019-05-09T17:42:08.928Z,0.80
2019-05-09T17:44:58.248Z,0.70
2019-05-09T17:47:48.533Z,0.80
2019-05-09T17:50:38.594Z,1.00
2019-05-09T17:53:32.853Z,0.77
2019-05-09T17:56:20.159Z,0.80
2019-05-09T17:59:10.072Z,0.63
2019-05-09T18:01:59.893Z,0.80
2019-05-09T18:04:49.802Z,0.77
2019-05-09T18:10:10.037Z,1.03
2019-05-09T18:12:59.883Z,0.80
2019-05-09T18:15:49.302Z,0.70
2019-05-09T18:18:39.117Z,0.90
2019-05-09T18:21:28.982Z,0.70
2019-05-09T18:24:20.178Z,1.57
2019-05-09T18:27:10.591Z,1.07
2019-05-09T18:30:00.384Z,0.70
2019-05-09T18:33:10.280Z,1.30
2019-05-09T18:35:59.975Z,1.30
2019-05-09T18:38:50.141Z,1.30
2019-05-09T18:41:39.201Z,1.10
2019-05-09T18:44:29.117Z,1.10
2019-05-09T18:47:19.381Z,2.30
2019-05-09T18:50:10.076Z,2.03
2019-05-09T18:53:00.154Z,1.40
2019-05-09T18:55:49.578Z,1.47
2019-05-09T18:58:39.373Z,1.13
2019-05-09T19:01:29.111Z,1.00
2019-05-09T19:04:19.382Z,0.83
2019-05-09T19:07:22.081Z,0.70
2019-05-09T19:10:01.194Z,0.80
2019-05-09T19:12:50.509Z,1.40
2019-05-09T19:15:47.699Z,1.30
2019-05-09T19:19:14.980Z,1.27
2019-05-09T19:22:20.424Z,1.13
2019-05-09T19:24:57.183Z,0.90
2019-05-09T19:27:47.147Z,0.90
2019-05-09T19:30:37.321Z,0.77
2019-05-09T19:33:27.393Z,0.90
2019-05-09T19:36:17.606Z,0.83
2019-05-09T19:39:13.936Z,0.90
2019-05-09T19:42:03.944Z,0.90
2019-05-09T19:44:54.007Z,0.70
2019-05-09T19:47:43.961Z,1.03
2019-05-09T19:50:33.958Z,0.90
2019-05-09T19:53:23.763Z,0.80
2019-05-09T19:56:14.007Z,0.80
2019-05-09T19:59:07.174Z,0.50
2019-05-09T20:01:55.244Z,0.73
2019-05-09T20:04:45.768Z,0.53
2019-05-09T20:07:35.543Z,1.63
2019-05-09T20:10:43.589Z,3.33
2019-05-09T20:13:52.672Z,1.10
2019-05-09T20:16:45.208Z,1.47
2019-05-09T20:19:35.284Z,0.80
2019-05-09T20:22:24.488Z,0.60
2019-05-09T20:25:14.316Z,0.70
2019-05-09T20:28:04.494Z,3.40
2019-05-09T20:30:54.405Z,0.97
2019-05-09T20:33:44.146Z,0.70
2019-05-09T20:36:34.182Z,0.70
2019-05-09T20:39:24.581Z,0.67
2019-05-09T20:42:14.785Z,0.50
2019-05-09T20:45:05.394Z,0.50
2019-05-09T20:47:56.188Z,0.70
2019-05-09T20:50:46.238Z,0.50
2019-05-09T20:53:36.555Z,0.60
2019-05-09T20:56:27.902Z,0.60
2019-05-09T20:59:18.295Z,0.60
2019-05-09T21:02:08.308Z,0.63
2019-05-09T21:04:58.452Z,0.70
2019-05-09T21:07:48.744Z,0.70
2019-05-09T21:10:39.133Z,0.60
2019-05-09T21:13:29.305Z,0.60
2019-05-09T21:16:19.382Z,0.60
2019-05-09T21:19:09.441Z,0.60
2019-05-09T21:21:59.768Z,0.57
2019-05-09T21:24:49.730Z,0.80
2019-05-09T21:27:39.492Z,0.60
2019-05-09T21:30:30.269Z,0.60
2019-05-09T21:33:20.171Z,1.00
2019-05-09T21:36:10.127Z,0.70
2019-05-09T21:38:59.932Z,0.60
2019-05-09T21:41:51.063Z,0.57
2019-05-09T21:44:41.109Z,0.70
2019-05-09T21:47:31.467Z,0.70
2019-05-09T21:50:21.493Z,0.70
2019-05-09T21:53:11.644Z,0.80
2019-05-09T21:56:01.427Z,0.70
2019-05-09T21:58:51.531Z,1.10
2019-05-09T22:01:42.284Z,0.70
2019-05-09T22:04:32.165Z,0.80
2019-05-09T22:07:21.913Z,0.70
2019-05-09T22:10:11.890Z,0.60
2019-05-09T22:13:01.278Z,0.60
2019-05-09T22:15:51.040Z,0.80
2019-05-09T22:18:41.207Z,0.70
2019-05-09T22:21:31.328Z,0.50
2019-05-09T22:24:21.879Z,0.60
2019-05-09T22:27:11.557Z,0.60
2019-05-09T22:30:02.036Z,0.70
2019-05-09T22:32:51.781Z,0.60
2019-05-09T22:35:42.173Z,0.60
2019-05-09T22:38:32.253Z,0.60
2019-05-09T22:41:22.084Z,0.80
2019-05-09T22:44:12.216Z,0.60
2019-05-09T22:47:02.299Z,0.77
2019-05-09T22:49:52.984Z,0.97
2019-05-09T22:52:42.944Z,0.60
2019-05-09T22:55:32.490Z,0.60
2019-05-09T22:58:22.655Z,0.60
2019-05-09T23:01:12.593Z,0.50
2019-05-09T23:04:02.881Z,0.63
2019-05-09T23:06:52.652Z,0.60
2019-05-09T23:09:42.806Z,0.60
2019-05-09T23:12:32.853Z,0.67
2019-05-09T23:15:22.792Z,0.70
2019-05-09T23:18:12.671Z,0.60
2019-05-09T23:21:02.893Z,0.60
2019-05-09T23:23:56.108Z,0.60
2019-05-09T23:26:46.808Z,0.67
2019-05-09T23:29:36.869Z,0.57
2019-05-09T23:32:40.356Z,0.60
2019-05-09T23:35:30.189Z,0.77
2019-05-09T23:38:20.213Z,0.60
2019-05-09T23:41:10.151Z,0.70
2019-05-09T23:43:59.920Z,0.80
2019-05-09T23:46:49.863Z,0.67
2019-05-09T23:49:39.865Z,0.70
2019-05-09T23:52:30.172Z,0.70
2019-05-09T23:55:38.232Z,0.60
2019-05-09T23:58:46.390Z,0.60
